Mc Guire Air Force Base
KWRI : now visible

Airfield :











YOU CAN JOIN US ON...

 
LOGIN :

Register | Disclaimer

   EN    FR    IT 

 









Legend :    VFR   Marginal VFR   IFR   Intensive IFR   Very Intensive IFR
Visi :
Ceiling :
>= 8 km
>= 3000ft
5 to 8 km
1000 to 3000 ft
1500m to 5 km
500 to 1000 ft
800 to 1500m
200 to 500 ft
< 800m
< 200 ft
Symbols :   Thunderstorms  Fog  Heavy snow  Heavy precipitations  Wind > 20 kt






- Airport Elevation : 131 ft
- IATA code : WRI


KWRI - Mc Guire Air Force Base

CURRENT METAR :
  • 190656Z AUTO 34006KT 10SM CLR 20/18 A3007 RMK AO2 SLP181 T01990175

EXPIRED METARs :
  • 190556Z AUTO 34006KT 10SM CLR 21/18 A3007 RMK AO2 SLP181 T02050181 10236 20204 52012
  • 190456Z AUTO 32006KT 10SM CLR 21/18 A3006 RMK AO2 SLP178 T02120182 403000184

TAF TAF KWRI
Valid from the 19 at 02:00 until the 20 at 08:00 UTC


190200Z 1902/2008 32004KT 9999 FEW120 QNH3004INS
BECMG 1913/1914 02008KT 9999 SKC QNH3013INS
BECMG 1921/1922 04004KT 9999 SKC QNH3014INS
BECMG 2002/2003 09003KT 9999 SKC QNH3023INS TX26/1919Z TN17/1910Z
KZNY FIR / North America



MET'MAP, your aeronautical weather chart ! - Copyright ORBIFLY December 2007 - Disclaimer

ORBIFLY MET'MAP TEAM :

Programming & Development : Alexandra Zaïnal
Concept & original design : Baudouin d'Aumeries
Assistance for programming : Marc-Olivier Méhu
Technical & hardware support : Manuel Goepfert

Contact : metmap@orbifly.com




SOURCES & CREDITS :

   NOAA       Earth
Advisory